Terminal Aerodrome Forecast
Issued by NWS

Home | Current Version | Previous Version | Graphics & Text | Print | Product List | Glossary On
Versions: 1 2 3 4 5 6 7 8 9 10 11 12 13 14 15 16
000
FTUS45 KRIW 011100
TAFBPI
TAF
KBPI 011126Z 0112/0212 35008KT P6SM SCT250
     FM012000 VRB05KT P6SM SCT110 BKN200
     FM020200 33007KT P6SM BKN060=

USA.gov is the U.S. government's official web portal to all federal, state and local government web resources and services.